Meeks, Texas
Current Conditions -  °F | °C
As of 12:15 PM on Friday 31 Oct 2014 (Local Time) from KT35 Reporting Station
Clear Clear  
Wind Chill: 70°   Ceiling: Unl
Heat Index: 70°   Visibility: 10mi
Dew Point: 43°   Wind: 16mph
Humidity: 37%   Direction: 360°N
Pressure: 30.29"   Gusts: 23mph
Location:  30.9882°N, 97.103°W
Report Text: KT35 311715Z AUTO 36014G20KT 10SM CLR 21/06 A3029 RMK AO2 T02110060
Loading
Personal Weather Stations






























Interactive Weather Map
Tropical Storm Tracking
New forecast layout! Learn more

10-Day Weather Forecast

Advertisements
Track Severe Weather on mobile